Time;durP1;ratioP1;P1;durP2;ratioP2;P2;SDS_P1;SDS_P2;PMS_P1;PMS_P2;Temp;Humidity;BMP_temperature;BMP_pressure;BME280_temperature;BME280_humidity;BME280_pressure;Samples;Min_cycle;Max_cycle;Signal;HPM_P1;HPM_P2
2023/06/14 00:00:44;;;;;;;;;16.33;14.33;;;;;;;;5067554;28;46139;-81
2023/06/14 00:03:11;;;;;;;;;13.67;12.67;;;;;;;;5077544;28;45454;-81
2023/06/14 00:05:42;;;;;;;;;18.67;13.67;;;;;;;;5075805;27;45453;-80
2023/06/14 00:08:08;;;;;;;;;16.67;13.67;;;;;;;;5075543;27;45452;-80
2023/06/14 00:10:35;;;;;;;;;14.33;14.33;;;;;;;;5060943;27;45950;-81
2023/06/14 00:13:01;;;;;;;;;14.33;14.33;;;;;;;;5074094;28;46001;-80
2023/06/14 00:15:26;;;;;;;;;20.67;18.00;;;;;;;;5073830;27;45427;-82
2023/06/14 00:17:54;;;;;;;;;20.67;18.00;;;;;;;;5061823;28;45447;-81
2023/06/14 00:20:20;;;;;;;;;18.00;16.33;;;;;;;;5074508;28;45709;-81
2023/06/14 00:22:45;;;;;;;;;17.00;13.67;;;;;;;;5055680;28;45986;-83
2023/06/14 00:25:10;;;;;;;;;18.00;17.00;;;;;;;;5075300;28;45840;-81
2023/06/14 00:27:35;;;;;;;;;16.33;12.67;;;;;;;;5062385;28;45379;-81
2023/06/14 00:30:01;;;;;;;;;16.67;14.33;;;;;;;;5056250;28;45809;-82
2023/06/14 00:32:27;;;;;;;;;16.33;15.33;;;;;;;;5075538;27;46761;-81
2023/06/14 00:34:53;;;;;;;;;18.00;16.67;;;;;;;;5078305;27;45513;-81
2023/06/14 00:37:18;;;;;;;;;17.33;16.00;;;;;;;;5077788;27;45452;-79
2023/06/14 00:39:43;;;;;;;;;15.67;15.67;;;;;;;;5090464;27;45512;-80
2023/06/14 00:42:08;;;;;;;;;20.67;18.00;;;;;;;;5059422;27;48266;-81
2023/06/14 00:44:33;;;;;;;;;16.67;15.33;;;;;;;;5070868;28;45968;-80
2023/06/14 00:46:59;;;;;;;;;15.33;13.00;;;;;;;;5078026;27;45776;-80
2023/06/14 00:49:24;;;;;;;;;19.00;16.67;;;;;;;;5078034;27;45479;-81
2023/06/14 00:51:50;;;;;;;;;20.33;17.33;;;;;;;;5064185;28;48171;-80
2023/06/14 00:54:15;;;;;;;;;16.33;15.33;;;;;;;;5060047;27;45526;-80
2023/06/14 00:56:40;;;;;;;;;13.33;13.00;;;;;;;;5082830;27;45747;-80
2023/06/14 00:59:05;;;;;;;;;17.33;16.00;;;;;;;;5080366;28;45439;-79
2023/06/14 01:01:34;;;;;;;;;21.33;14.33;;;;;;;;5061764;28;45653;-79
2023/06/14 01:04:01;;;;;;;;;17.67;16.67;;;;;;;;5062406;28;45839;-79
2023/06/14 01:06:41;;;;;;;;;17.67;16.00;;;;;;;;5078689;28;45676;-80
2023/06/14 01:09:15;;;;;;;;;17.33;14.33;;;;;;;;5077291;27;45512;-79
2023/06/14 01:12:00;;;;;;;;;19.33;17.67;;;;;;;;5061467;28;48042;-80
2023/06/14 01:14:27;;;;;;;;;11.67;11.67;;;;;;;;5075611;28;45339;-80
2023/06/14 01:16:53;;;;;;;;;19.33;17.00;;;;;;;;5065233;28;45772;-79
2023/06/14 01:19:18;;;;;;;;;19.67;17.33;;;;;;;;5063522;28;45994;-80
2023/06/14 01:21:44;;;;;;;;;18.67;17.33;;;;;;;;5060060;28;47905;-80
2023/06/14 01:24:10;;;;;;;;;19.00;17.00;;;;;;;;5077007;27;45683;-80
2023/06/14 01:26:37;;;;;;;;;20.67;16.00;;;;;;;;5075527;28;45763;-82
2023/06/14 01:29:03;;;;;;;;;21.00;17.00;;;;;;;;5078744;27;45354;-81
2023/06/14 01:31:29;;;;;;;;;16.67;14.67;;;;;;;;5078678;28;46181;-79
2023/06/14 01:33:55;;;;;;;;;18.00;15.67;;;;;;;;5060091;28;45421;-81
2023/06/14 01:36:20;;;;;;;;;25.00;21.33;;;;;;;;5078317;28;45804;-81
2023/06/14 01:38:46;;;;;;;;;20.00;17.33;;;;;;;;5078708;28;45479;-80
2023/06/14 01:41:13;;;;;;;;;16.33;16.33;;;;;;;;5077898;28;45761;-80
2023/06/14 01:43:40;;;;;;;;;15.33;15.33;;;;;;;;5078697;27;45561;-81
2023/06/14 01:46:05;;;;;;;;;26.00;20.33;;;;;;;;5071992;28;45525;-81
2023/06/14 01:48:31;;;;;;;;;21.00;20.00;;;;;;;;5077878;27;45370;-81
2023/06/14 01:50:56;;;;;;;;;21.00;18.00;;;;;;;;5060801;27;46506;-80
2023/06/14 01:53:22;;;;;;;;;19.33;16.33;;;;;;;;5073137;28;45348;-79
2023/06/14 01:55:48;;;;;;;;;18.67;14.33;;;;;;;;5077234;28;45535;-80
2023/06/14 01:58:13;;;;;;;;;26.67;19.33;;;;;;;;5075388;28;45427;-81
2023/06/14 02:00:38;;;;;;;;;15.33;15.33;;;;;;;;5070708;28;46639;-79
2023/06/14 02:03:04;;;;;;;;;14.00;14.00;;;;;;;;5058398;28;45508;-81
2023/06/14 02:05:30;;;;;;;;;20.67;18.33;;;;;;;;5081191;28;45345;-80
2023/06/14 02:07:55;;;;;;;;;18.67;16.00;;;;;;;;5084950;28;45544;-78
2023/06/14 02:10:20;;;;;;;;;21.33;18.33;;;;;;;;5081084;28;45867;-81
2023/06/14 02:12:46;;;;;;;;;20.67;18.00;;;;;;;;5063108;28;45955;-80
2023/06/14 02:15:18;;;;;;;;;27.00;21.67;;;;;;;;5070505;28;45637;-79
2023/06/14 02:17:49;;;;;;;;;24.33;22.00;;;;;;;;5075188;27;45829;-81
2023/06/14 02:20:15;;;;;;;;;23.33;20.00;;;;;;;;5069722;28;46121;-80
2023/06/14 02:22:40;;;;;;;;;24.67;22.00;;;;;;;;5061821;27;45978;-79
2023/06/14 02:25:06;;;;;;;;;25.00;22.00;;;;;;;;5075916;27;45561;-81
2023/06/14 02:27:31;;;;;;;;;22.00;20.67;;;;;;;;5070342;28;46450;-79
2023/06/14 02:29:57;;;;;;;;;20.00;19.33;;;;;;;;5080438;27;46619;-80
2023/06/14 02:32:22;;;;;;;;;27.33;25.33;;;;;;;;5076015;28;45378;-81
2023/06/14 02:34:49;;;;;;;;;33.00;30.67;;;;;;;;5073146;27;45464;-82
2023/06/14 02:37:15;;;;;;;;;25.67;22.67;;;;;;;;5075971;28;45761;-81
2023/06/14 02:39:40;;;;;;;;;23.33;21.67;;;;;;;;5070107;27;46425;-80
2023/06/14 02:42:06;;;;;;;;;25.67;22.00;;;;;;;;5075909;27;45499;-81
2023/06/14 02:44:32;;;;;;;;;23.33;20.67;;;;;;;;5062527;28;45863;-81
2023/06/14 02:46:58;;;;;;;;;25.33;20.67;;;;;;;;5068449;28;45457;-80
2023/06/14 02:49:24;;;;;;;;;21.00;20.00;;;;;;;;5070441;28;46194;-80
2023/06/14 02:51:49;;;;;;;;;25.33;25.33;;;;;;;;5058872;28;45878;-79
2023/06/14 02:54:14;;;;;;;;;22.67;21.33;;;;;;;;5068710;27;45808;-79
2023/06/14 02:56:40;;;;;;;;;25.00;22.00;;;;;;;;5075602;28;45491;-80
2023/06/14 02:59:05;;;;;;;;;25.67;23.33;;;;;;;;5071824;27;46587;-81
2023/06/14 03:01:34;;;;;;;;;25.67;23.00;;;;;;;;5066942;27;45829;-81
2023/06/14 03:04:03;;;;;;;;;32.67;29.33;;;;;;;;5077968;27;45661;-80
2023/06/14 03:06:30;;;;;;;;;23.00;21.33;;;;;;;;5076293;28;45550;-80
2023/06/14 03:08:59;;;;;;;;;25.67;23.00;;;;;;;;5047717;28;47300;-80
2023/06/14 03:11:25;;;;;;;;;25.67;23.00;;;;;;;;5079732;27;45508;-81
2023/06/14 03:13:50;;;;;;;;;30.33;24.00;;;;;;;;5064092;27;45691;-78
2023/06/14 03:16:17;;;;;;;;;30.00;27.00;;;;;;;;5075491;27;45422;-80
2023/06/14 03:18:42;;;;;;;;;24.00;23.00;;;;;;;;5056135;28;48402;-80
2023/06/14 03:21:08;;;;;;;;;28.33;22.67;;;;;;;;5074909;28;45405;-80
2023/06/14 03:23:34;;;;;;;;;22.33;20.67;;;;;;;;5060536;28;45500;-79
2023/06/14 03:25:59;;;;;;;;;22.00;21.33;;;;;;;;5062334;27;46012;-79
2023/06/14 03:28:25;;;;;;;;;18.00;17.67;;;;;;;;5070155;28;45797;-79
2023/06/14 03:30:51;;;;;;;;;23.33;22.33;;;;;;;;5074292;28;45651;-79
2023/06/14 03:33:16;;;;;;;;;24.33;21.00;;;;;;;;5066609;28;45643;-77
2023/06/14 03:35:42;;;;;;;;;27.67;26.00;;;;;;;;5068084;27;45342;-78
2023/06/14 03:38:07;;;;;;;;;29.00;24.33;;;;;;;;5069195;28;46537;-77
2023/06/14 03:40:32;;;;;;;;;34.33;23.67;;;;;;;;5074190;27;45670;-77
2023/06/14 03:42:57;;;;;;;;;24.00;23.00;;;;;;;;5081749;27;45404;-77
2023/06/14 03:45:23;;;;;;;;;26.00;23.33;;;;;;;;5074451;28;45595;-79
2023/06/14 03:47:48;;;;;;;;;20.67;20.67;;;;;;;;5075151;28;45671;-78
2023/06/14 03:50:13;;;;;;;;;23.33;22.33;;;;;;;;5074524;28;45480;-78
2023/06/14 03:52:39;;;;;;;;;20.00;18.00;;;;;;;;5073747;28;45612;-78
2023/06/14 03:55:04;;;;;;;;;25.00;22.67;;;;;;;;5073586;28;45634;-78
2023/06/14 03:57:30;;;;;;;;;26.00;21.67;;;;;;;;5073692;27;46215;-79
2023/06/14 03:59:55;;;;;;;;;24.67;22.33;;;;;;;;5060091;28;45510;-79
2023/06/14 04:02:20;;;;;;;;;26.33;22.33;;;;;;;;5072406;28;45432;-80
2023/06/14 04:04:46;;;;;;;;;25.33;23.33;;;;;;;;5055211;28;47244;-79
2023/06/14 04:07:12;;;;;;;;;27.33;24.67;;;;;;;;5073987;28;46286;-79
2023/06/14 04:09:37;;;;;;;;;28.67;22.33;;;;;;;;5072237;28;45569;-78
2023/06/14 04:12:03;;;;;;;;;25.67;24.67;;;;;;;;5078584;28;45581;-78
2023/06/14 04:14:28;;;;;;;;;29.00;26.33;;;;;;;;5078065;27;45640;-78
2023/06/14 04:16:53;;;;;;;;;28.33;23.67;;;;;;;;5077260;27;46589;-78
2023/06/14 04:19:18;;;;;;;;;28.33;24.67;;;;;;;;5077193;28;45819;-79
2023/06/14 04:21:44;;;;;;;;;30.67;26.67;;;;;;;;5067156;27;45681;-79
2023/06/14 04:24:15;;;;;;;;;26.00;26.00;;;;;;;;5074060;27;45709;-79
2023/06/14 04:26:41;;;;;;;;;26.67;23.67;;;;;;;;5070320;27;45698;-79
2023/06/14 04:29:06;;;;;;;;;23.00;22.00;;;;;;;;5062694;28;45954;-83
2023/06/14 04:31:37;;;;;;;;;23.33;23.33;;;;;;;;5077003;27;45673;-80
2023/06/14 04:34:05;;;;;;;;;25.67;23.67;;;;;;;;5075706;27;45421;-79
2023/06/14 04:36:32;;;;;;;;;30.00;25.67;;;;;;;;5075018;27;46444;-82
2023/06/14 04:38:58;;;;;;;;;42.33;36.33;;;;;;;;5081056;27;45442;-78
2023/06/14 04:41:30;;;;;;;;;23.67;20.67;;;;;;;;5061108;27;45395;-80
2023/06/14 04:43:57;;;;;;;;;27.00;26.00;;;;;;;;5076245;27;45461;-80
2023/06/14 04:46:22;;;;;;;;;40.67;36.00;;;;;;;;5080439;27;45607;-79
2023/06/14 04:48:47;;;;;;;;;27.67;25.00;;;;;;;;5059212;27;45538;-79
2023/06/14 04:51:13;;;;;;;;;24.00;22.67;;;;;;;;5076710;27;45481;-78
2023/06/14 04:53:38;;;;;;;;;25.00;22.33;;;;;;;;5077122;27;45504;-79
2023/06/14 04:56:03;;;;;;;;;25.00;24.00;;;;;;;;5074592;27;46043;-80
2023/06/14 04:58:29;;;;;;;;;20.67;19.67;;;;;;;;5061348;27;45562;-80
2023/06/14 05:00:55;;;;;;;;;28.67;26.00;;;;;;;;5076059;27;45611;-78
2023/06/14 05:03:21;;;;;;;;;32.33;28.00;;;;;;;;5078808;27;45465;-77
2023/06/14 05:05:46;;;;;;;;;26.00;23.00;;;;;;;;5077559;27;46120;-80
2023/06/14 05:08:11;;;;;;;;;31.67;26.33;;;;;;;;5079902;27;45454;-78
2023/06/14 05:10:39;;;;;;;;;22.00;22.00;;;;;;;;5081393;27;45859;-77
2023/06/14 05:13:04;;;;;;;;;23.00;21.00;;;;;;;;5058029;27;45691;-78
2023/06/14 05:15:30;;;;;;;;;26.33;24.33;;;;;;;;5076706;27;45781;-81
2023/06/14 05:17:55;;;;;;;;;28.00;23.67;;;;;;;;5076811;27;45434;-80
2023/06/14 05:20:24;;;;;;;;;26.33;25.33;;;;;;;;5080556;27;45414;-77
2023/06/14 05:22:51;;;;;;;;;14.00;14.00;;;;;;;;5060121;28;45328;-73
2023/06/14 05:25:17;;;;;;;;;25.33;22.33;;;;;;;;5074053;27;45539;-73
2023/06/14 05:27:42;;;;;;;;;23.67;21.33;;;;;;;;5074641;28;45829;-73
2023/06/14 05:30:08;;;;;;;;;24.67;24.67;;;;;;;;5075670;28;45709;-73
2023/06/14 05:32:33;;;;;;;;;23.33;22.00;;;;;;;;5073759;27;46020;-74
2023/06/14 05:34:58;;;;;;;;;27.67;24.00;;;;;;;;5075131;27;45742;-76
2023/06/14 05:37:23;;;;;;;;;23.33;23.00;;;;;;;;5075760;28;45694;-75
2023/06/14 05:39:49;;;;;;;;;24.00;22.67;;;;;;;;5075109;27;45803;-75
2023/06/14 05:42:14;;;;;;;;;27.00;26.00;;;;;;;;5069807;27;46004;-75
2023/06/14 05:44:40;;;;;;;;;24.33;24.33;;;;;;;;5066362;28;45644;-74
2023/06/14 05:47:05;;;;;;;;;24.00;23.67;;;;;;;;5075264;27;45445;-77
2023/06/14 05:49:30;;;;;;;;;22.33;21.67;;;;;;;;5083482;27;45909;-72
2023/06/14 05:51:56;;;;;;;;;26.33;22.33;;;;;;;;5056994;28;45509;-74
2023/06/14 05:54:21;;;;;;;;;26.33;23.00;;;;;;;;5072763;28;46039;-73
2023/06/14 05:56:46;;;;;;;;;23.67;20.67;;;;;;;;5073459;28;45371;-72
2023/06/14 05:59:11;;;;;;;;;27.00;25.67;;;;;;;;5073205;28;45763;-74
2023/06/14 06:01:37;;;;;;;;;21.33;20.33;;;;;;;;5071839;27;45646;-74
2023/06/14 06:04:02;;;;;;;;;22.00;22.00;;;;;;;;5055171;28;47734;-73
2023/06/14 06:06:28;;;;;;;;;21.67;20.00;;;;;;;;5066376;27;45715;-72
2023/06/14 06:08:53;;;;;;;;;24.00;20.33;;;;;;;;5067181;27;45924;-74
2023/06/14 06:11:19;;;;;;;;;20.67;18.67;;;;;;;;5062639;27;45791;-73
2023/06/14 06:13:45;;;;;;;;;22.00;19.67;;;;;;;;5052068;28;45840;-77
2023/06/14 06:16:10;;;;;;;;;19.67;17.67;;;;;;;;5062391;28;45565;-74
2023/06/14 06:18:36;;;;;;;;;19.00;16.00;;;;;;;;5054758;27;45490;-74
2023/06/14 06:21:03;;;;;;;;;18.00;17.67;;;;;;;;5071213;27;45713;-74
2023/06/14 06:23:31;;;;;;;;;13.00;13.00;;;;;;;;5049339;28;45417;-72
2023/06/14 06:25:56;;;;;;;;;16.33;16.33;;;;;;;;5049640;28;45845;-73
2023/06/14 06:28:22;;;;;;;;;14.00;13.00;;;;;;;;5042364;28;45685;-77
2023/06/14 06:30:47;;;;;;;;;18.33;18.00;;;;;;;;5034268;28;45988;-75
2023/06/14 06:33:13;;;;;;;;;17.00;15.67;;;;;;;;5033698;28;46334;-72
2023/06/14 06:35:39;;;;;;;;;17.00;16.00;;;;;;;;5038062;28;45778;-75
2023/06/14 06:38:04;;;;;;;;;16.33;14.33;;;;;;;;5049125;28;45520;-75
2023/06/14 06:40:30;;;;;;;;;19.33;16.00;;;;;;;;5045858;28;45786;-75
2023/06/14 06:42:55;;;;;;;;;20.67;20.67;;;;;;;;5042447;28;45865;-76
2023/06/14 06:45:20;;;;;;;;;16.00;14.67;;;;;;;;5044459;28;45480;-75
2023/06/14 06:47:45;;;;;;;;;15.00;15.00;;;;;;;;5043680;28;45559;-75
2023/06/14 06:50:11;;;;;;;;;11.00;10.00;;;;;;;;5043234;28;45688;-75
2023/06/14 06:52:36;;;;;;;;;15.00;14.00;;;;;;;;5045737;28;45757;-75
2023/06/14 06:55:02;;;;;;;;;13.00;13.00;;;;;;;;5027579;28;45991;-78
2023/06/14 06:57:29;;;;;;;;;15.67;14.67;;;;;;;;5039781;28;45654;-75
2023/06/14 06:59:54;;;;;;;;;19.33;18.00;;;;;;;;5039709;28;45520;-75
2023/06/14 07:02:19;;;;;;;;;13.00;13.00;;;;;;;;5038910;28;46187;-78
2023/06/14 07:04:45;;;;;;;;;15.00;14.00;;;;;;;;5038115;28;45848;-76
2023/06/14 07:07:10;;;;;;;;;13.33;12.67;;;;;;;;5045905;28;45844;-76
2023/06/14 07:09:36;;;;;;;;;12.67;12.33;;;;;;;;5047414;28;47019;-75
2023/06/14 07:12:01;;;;;;;;;14.67;13.00;;;;;;;;5051615;28;45811;-76
2023/06/14 07:14:26;;;;;;;;;13.67;13.67;;;;;;;;5057047;28;45786;-75
2023/06/14 07:16:52;;;;;;;;;15.00;13.00;;;;;;;;5051647;28;45833;-78
2023/06/14 07:19:17;;;;;;;;;15.00;13.67;;;;;;;;5019376;28;47515;-75
2023/06/14 07:21:43;;;;;;;;;16.67;15.33;;;;;;;;5042561;28;47291;-76
2023/06/14 07:24:08;;;;;;;;;15.33;14.00;;;;;;;;5051776;28;45801;-81
2023/06/14 07:26:33;;;;;;;;;15.33;13.00;;;;;;;;5042231;28;46012;-77
2023/06/14 07:28:59;;;;;;;;;13.00;12.33;;;;;;;;5048300;28;45471;-80
2023/06/14 07:31:24;;;;;;;;;15.00;13.00;;;;;;;;5047462;28;46028;-77
2023/06/14 07:33:49;;;;;;;;;14.00;13.33;;;;;;;;5043615;28;45583;-76
2023/06/14 07:36:15;;;;;;;;;15.67;14.67;;;;;;;;5052073;28;45669;-76
2023/06/14 07:38:40;;;;;;;;;12.33;11.00;;;;;;;;5050469;28;45547;-75
2023/06/14 07:41:06;;;;;;;;;14.33;14.00;;;;;;;;5041390;28;46454;-75
2023/06/14 07:43:31;;;;;;;;;12.33;12.33;;;;;;;;5037964;28;45711;-77
2023/06/14 07:45:56;;;;;;;;;13.33;11.00;;;;;;;;5052070;28;45480;-76
2023/06/14 07:48:22;;;;;;;;;15.33;15.33;;;;;;;;5051423;28;45969;-74
2023/06/14 07:50:47;;;;;;;;;12.33;11.00;;;;;;;;5052183;28;45478;-76
2023/06/14 07:53:12;;;;;;;;;14.67;12.00;;;;;;;;5051780;28;45516;-77
2023/06/14 07:55:38;;;;;;;;;13.00;12.00;;;;;;;;5029607;28;45842;-75
2023/06/14 07:58:03;;;;;;;;;16.33;14.67;;;;;;;;5052300;28;45621;-75
2023/06/14 08:00:30;;;;;;;;;10.33;10.33;;;;;;;;5050589;28;46502;-78
2023/06/14 08:02:59;;;;;;;;;10.00;10.00;;;;;;;;5028030;28;45670;-76
2023/06/14 08:05:27;;;;;;;;;13.00;11.00;;;;;;;;5034983;28;45960;-77
2023/06/14 08:07:53;;;;;;;;;10.00;9.00;;;;;;;;5048532;28;45852;-76
2023/06/14 08:10:18;;;;;;;;;13.00;10.33;;;;;;;;5050290;28;45855;-74
2023/06/14 08:12:44;;;;;;;;;11.67;11.33;;;;;;;;5053552;28;45676;-75
2023/06/14 08:15:09;;;;;;;;;11.33;9.67;;;;;;;;5048920;28;45502;-75
2023/06/14 08:17:35;;;;;;;;;12.00;12.00;;;;;;;;5051952;28;45715;-78
2023/06/14 08:20:00;;;;;;;;;10.33;10.33;;;;;;;;5030467;28;47098;-76
2023/06/14 08:22:27;;;;;;;;;10.00;10.00;;;;;;;;5043666;28;45675;-76
2023/06/14 08:24:54;;;;;;;;;13.00;10.33;;;;;;;;5051413;28;45526;-75
2023/06/14 08:27:19;;;;;;;;;13.67;12.33;;;;;;;;5046998;28;45552;-76
2023/06/14 08:29:45;;;;;;;;;11.33;11.33;;;;;;;;5033949;28;48317;-75
2023/06/14 08:32:10;;;;;;;;;12.33;12.33;;;;;;;;5043883;28;45403;-76
2023/06/14 08:34:35;;;;;;;;;14.67;13.67;;;;;;;;5045865;28;45779;-75
2023/06/14 08:37:01;;;;;;;;;12.00;12.00;;;;;;;;5044413;28;45605;-75
2023/06/14 08:39:26;;;;;;;;;12.67;12.67;;;;;;;;5045993;28;45693;-73
2023/06/14 08:41:52;;;;;;;;;13.33;12.33;;;;;;;;5051477;28;45435;-73
2023/06/14 08:44:17;;;;;;;;;13.67;12.33;;;;;;;;5037071;28;45835;-73
2023/06/14 08:46:43;;;;;;;;;13.00;13.00;;;;;;;;5046530;28;45693;-74
2023/06/14 08:49:11;;;;;;;;;10.33;10.33;;;;;;;;5049137;28;47023;-76
2023/06/14 08:51:36;;;;;;;;;13.00;10.33;;;;;;;;5053911;28;45516;-77
2023/06/14 08:54:04;;;;;;;;;12.00;10.33;;;;;;;;5036719;28;45814;-75
2023/06/14 08:56:30;;;;;;;;;11.00;10.00;;;;;;;;5055584;28;45575;-79
2023/06/14 08:58:57;;;;;;;;;11.00;11.00;;;;;;;;5055272;28;45454;-77
2023/06/14 09:01:23;;;;;;;;;10.00;10.00;;;;;;;;5060726;28;45818;-78
2023/06/14 09:03:48;;;;;;;;;13.33;12.33;;;;;;;;5056039;28;45434;-78
2023/06/14 09:06:15;;;;;;;;;13.33;12.33;;;;;;;;5055556;28;45684;-79
2023/06/14 09:08:41;;;;;;;;;13.33;12.67;;;;;;;;5050982;28;47520;-77
2023/06/14 09:11:08;;;;;;;;;13.00;13.00;;;;;;;;5046890;28;45507;-76
2023/06/14 09:13:33;;;;;;;;;14.00;12.33;;;;;;;;5039219;28;45778;-77
2023/06/14 09:15:59;;;;;;;;;12.67;11.67;;;;;;;;5050451;28;45534;-76
2023/06/14 09:18:34;;;;;;;;;12.00;11.00;;;;;;;;5055091;28;45776;-76
2023/06/14 09:20:59;;;;;;;;;9.67;9.67;;;;;;;;5054939;28;45869;-75
2023/06/14 09:23:24;;;;;;;;;13.67;13.67;;;;;;;;5028983;28;45634;-76
2023/06/14 09:25:50;;;;;;;;;10.00;10.00;;;;;;;;5047407;28;45554;-75
2023/06/14 09:28:15;;;;;;;;;9.33;9.33;;;;;;;;5039850;28;45596;-76
2023/06/14 09:30:40;;;;;;;;;10.67;10.67;;;;;;;;5055221;28;45520;-73
2023/06/14 09:33:06;;;;;;;;;10.00;10.00;;;;;;;;5039216;28;45503;-74
2023/06/14 09:35:32;;;;;;;;;9.33;9.33;;;;;;;;5055088;28;45436;-76
2023/06/14 09:37:57;;;;;;;;;12.33;12.33;;;;;;;;5054427;28;46118;-75
2023/06/14 09:40:23;;;;;;;;;11.00;10.67;;;;;;;;5054952;28;45370;-76
2023/06/14 09:42:48;;;;;;;;;8.00;8.00;;;;;;;;5055091;28;45409;-76
2023/06/14 09:45:14;;;;;;;;;8.00;8.00;;;;;;;;5055052;28;45558;-75
2023/06/14 09:47:40;;;;;;;;;11.67;9.67;;;;;;;;5036549;28;45648;-76
2023/06/14 09:50:06;;;;;;;;;10.67;10.00;;;;;;;;5054855;28;45853;-78
2023/06/14 09:52:31;;;;;;;;;11.67;10.67;;;;;;;;5054167;28;45641;-75
2023/06/14 09:54:58;;;;;;;;;9.67;9.67;;;;;;;;5051884;28;45685;-76
2023/06/14 09:57:26;;;;;;;;;8.33;8.33;;;;;;;;5054803;28;45873;-77
2023/06/14 09:59:53;;;;;;;;;10.33;9.00;;;;;;;;5050579;28;45536;-76
2023/06/14 10:02:24;;;;;;;;;9.00;9.00;;;;;;;;5049158;28;45470;-76
2023/06/14 10:05:10;;;;;;;;;7.67;7.33;;;;;;;;5040530;28;47168;-76
2023/06/14 10:07:40;;;;;;;;;9.67;9.33;;;;;;;;5052593;28;45670;-76
2023/06/14 10:10:06;;;;;;;;;11.00;10.00;;;;;;;;5053186;28;45442;-77
2023/06/14 10:12:31;;;;;;;;;10.00;9.33;;;;;;;;5040118;28;45759;-79
2023/06/14 10:14:57;;;;;;;;;11.67;9.67;;;;;;;;5045028;28;45987;-79
2023/06/14 10:17:39;;;;;;;;;12.00;11.00;;;;;;;;5043102;28;46366;-76
2023/06/14 10:20:20;;;;;;;;;8.33;8.33;;;;;;;;5046875;28;45183;-77
2023/06/14 10:22:49;;;;;;;;;10.67;8.33;;;;;;;;5054133;28;45474;-78
2023/06/14 10:25:26;;;;;;;;;13.33;13.33;;;;;;;;5032821;28;45772;-77
2023/06/14 10:28:01;;;;;;;;;11.67;10.67;;;;;;;;5051836;28;45413;-76
2023/06/14 10:30:27;;;;;;;;;11.00;10.00;;;;;;;;5053638;28;45804;-78
2023/06/14 10:33:07;;;;;;;;;12.00;12.00;;;;;;;;5051209;28;45415;-76
2023/06/14 10:35:33;;;;;;;;;11.33;9.00;;;;;;;;5035335;28;45799;-78
2023/06/14 10:38:14;;;;;;;;;12.00;12.00;;;;;;;;5041562;28;46260;-77
2023/06/14 10:40:40;;;;;;;;;11.00;11.00;;;;;;;;5039578;28;45500;-78
2023/06/14 10:43:21;;;;;;;;;12.00;11.33;;;;;;;;5046759;28;45473;-78
2023/06/14 10:46:05;;;;;;;;;12.00;9.00;;;;;;;;5050947;28;45505;-76
2023/06/14 10:48:31;;;;;;;;;16.00;13.00;;;;;;;;5052911;28;45465;-80
2023/06/14 10:51:02;;;;;;;;;11.00;10.67;;;;;;;;5044999;28;45618;-78
2023/06/14 10:53:28;;;;;;;;;9.00;9.00;;;;;;;;5034530;28;45423;-77
2023/06/14 10:56:16;;;;;;;;;10.33;10.33;;;;;;;;5051990;28;45932;-81
2023/06/14 10:58:41;;;;;;;;;13.00;13.00;;;;;;;;5052717;28;46140;-77
2023/06/14 11:01:07;;;;;;;;;10.67;10.00;;;;;;;;5050650;28;45514;-78
2023/06/14 11:03:43;;;;;;;;;11.67;11.00;;;;;;;;5031365;28;45534;-77
2023/06/14 11:06:13;;;;;;;;;11.67;11.67;;;;;;;;5051759;28;45536;-74
2023/06/14 11:08:46;;;;;;;;;12.33;11.00;;;;;;;;5049623;28;47096;-75
2023/06/14 11:11:12;;;;;;;;;12.00;12.00;;;;;;;;5055162;28;60633;-76
2023/06/14 11:13:45;;;;;;;;;12.00;12.00;;;;;;;;5034809;28;45430;-74
2023/06/14 11:16:14;;;;;;;;;13.00;11.50;;;;;;;;5061528;28;45818;-75
2023/06/14 11:18:40;;;;;;;;;12.00;12.00;;;;;;;;5041760;28;46003;-76
2023/06/14 11:21:05;;;;;;;;;14.00;13.33;;;;;;;;5045242;28;45644;-75
2023/06/14 11:23:31;;;;;;;;;13.75;12.50;;;;;;;;5050241;28;45743;-76
2023/06/14 11:25:56;;;;;;;;;10.00;10.00;;;;;;;;5054555;28;45899;-77
2023/06/14 11:28:22;;;;;;;;;13.00;12.00;;;;;;;;5052341;28;45702;-75
2023/06/14 11:30:48;;;;;;;;;12.67;12.00;;;;;;;;5054209;28;45757;-75
2023/06/14 11:33:18;;;;;;;;;16.67;15.00;;;;;;;;5058254;28;45644;-75
2023/06/14 11:35:43;;;;;;;;;12.33;11.33;;;;;;;;5032674;28;46192;-73
2023/06/14 11:38:10;;;;;;;;;15.00;14.00;;;;;;;;5049810;28;45709;-77
2023/06/14 11:40:41;;;;;;;;;12.67;10.00;;;;;;;;5041295;28;45537;-79
2023/06/14 11:43:06;;;;;;;;;9.67;9.67;;;;;;;;5050969;28;45601;-79
2023/06/14 11:45:32;;;;;;;;;9.33;9.33;;;;;;;;5051557;28;46353;-77
2023/06/14 11:48:01;;;;;;;;;9.00;9.00;;;;;;;;5051155;28;48314;-75
2023/06/14 11:50:27;;;;;;;;;11.67;11.67;;;;;;;;5045085;28;45799;-76
2023/06/14 11:52:56;;;;;;;;;14.67;12.67;;;;;;;;5035156;28;45795;-74
2023/06/14 11:55:30;;;;;;;;;17.00;15.33;;;;;;;;5045202;28;45396;-75
2023/06/14 11:57:55;;;;;;;;;17.33;15.00;;;;;;;;5033466;28;48235;-76
2023/06/14 12:00:24;;;;;;;;;10.67;10.67;;;;;;;;5051695;28;45432;-78
2023/06/14 12:02:56;;;;;;;;;13.67;13.67;;;;;;;;5036012;28;46409;-78
2023/06/14 12:05:22;;;;;;;;;14.50;14.00;;;;;;;;5052508;28;45638;-76
2023/06/14 12:07:53;;;;;;;;;12.00;11.33;;;;;;;;5035037;28;46018;-77
2023/06/14 12:10:18;;;;;;;;;12.67;12.67;;;;;;;;5042503;28;45660;-77
2023/06/14 12:12:44;;;;;;;;;13.67;12.67;;;;;;;;5043951;28;45806;-77
2023/06/14 12:15:15;;;;;;;;;18.00;15.33;;;;;;;;5055812;28;45515;-80
2023/06/14 12:17:42;;;;;;;;;13.67;13.00;;;;;;;;5033527;28;46860;-80
2023/06/14 12:20:13;;;;;;;;;18.33;15.33;;;;;;;;5052322;28;45501;-79
2023/06/14 12:22:38;;;;;;;;;13.00;13.00;;;;;;;;5052935;28;45833;-83
2023/06/14 12:25:05;;;;;;;;;14.67;12.33;;;;;;;;5050080;28;45856;-80
2023/06/14 12:27:30;;;;;;;;;15.33;14.00;;;;;;;;5038937;28;47158;-80
2023/06/14 12:30:00;;;;;;;;;15.33;14.67;;;;;;;;5045022;28;45723;-78
2023/06/14 12:32:25;;;;;;;;;18.67;16.67;;;;;;;;5055497;28;45898;-80
2023/06/14 12:34:50;;;;;;;;;14.67;14.67;;;;;;;;5059560;28;46114;-75
2023/06/14 12:37:15;;;;;;;;;17.33;15.00;;;;;;;;5054058;28;45460;-76
2023/06/14 12:39:41;;;;;;;;;15.33;15.33;;;;;;;;5036374;28;45380;-76
2023/06/14 12:42:06;;;;;;;;;20.67;18.00;;;;;;;;5047180;28;45375;-76
2023/06/14 12:44:33;;;;;;;;;17.67;15.33;;;;;;;;5058564;28;46257;-82
2023/06/14 12:46:58;;;;;;;;;12.00;12.00;;;;;;;;5055130;28;45524;-77
2023/06/14 12:49:24;;;;;;;;;14.00;14.00;;;;;;;;5060188;28;45857;-76
2023/06/14 12:51:49;;;;;;;;;9.00;7.33;;;;;;;;5058711;28;45594;-76
2023/06/14 12:54:14;;;;;;;;;13.33;13.00;;;;;;;;5054811;28;45506;-75
2023/06/14 12:56:41;;;;;;;;;15.67;13.67;;;;;;;;5047659;28;46450;-76
2023/06/14 12:59:07;;;;;;;;;14.33;12.67;;;;;;;;5054246;28;45680;-76
2023/06/14 13:01:32;;;;;;;;;9.67;9.67;;;;;;;;5030157;28;45700;-77
2023/06/14 13:03:58;;;;;;;;;47.67;38.00;;;;;;;;5050945;28;45753;-77
2023/06/14 13:06:24;;;;;;;;;18.00;16.33;;;;;;;;5044440;28;47313;-77
2023/06/14 13:08:50;;;;;;;;;14.00;14.00;;;;;;;;5058060;28;45440;-75
2023/06/14 13:11:15;;;;;;;;;11.67;10.00;;;;;;;;5055045;28;45931;-78
2023/06/14 13:13:41;;;;;;;;;14.00;14.00;;;;;;;;5049981;28;45786;-75
2023/06/14 13:16:06;;;;;;;;;14.67;13.00;;;;;;;;5043420;28;47864;-75
2023/06/14 13:18:31;;;;;;;;;14.33;12.33;;;;;;;;5053872;28;45719;-76
2023/06/14 13:20:57;;;;;;;;;15.67;15.33;;;;;;;;5055490;28;45567;-77
2023/06/14 13:23:22;;;;;;;;;14.33;13.33;;;;;;;;5056547;28;45675;-75
2023/06/14 13:26:10;;;;;;;;;14.67;13.67;;;;;;;;5064717;28;45844;-79
2023/06/14 13:28:35;;;;;;;;;16.67;15.33;;;;;;;;5038574;28;45453;-77
2023/06/14 13:31:15;;;;;;;;;13.33;13.33;;;;;;;;5034405;28;45374;-79
2023/06/14 13:33:41;;;;;;;;;13.00;11.67;;;;;;;;5035877;28;46537;-80
2023/06/14 13:36:06;;;;;;;;;12.33;12.00;;;;;;;;5052758;28;45994;-80
2023/06/14 13:38:32;;;;;;;;;17.00;14.67;;;;;;;;5054235;28;45526;-77
2023/06/14 13:40:57;;;;;;;;;13.33;13.33;;;;;;;;5053036;28;45477;-77
2023/06/14 13:43:22;;;;;;;;;15.00;13.33;;;;;;;;5035407;28;45892;-76
2023/06/14 13:45:48;;;;;;;;;14.67;14.67;;;;;;;;5053267;28;46037;-77
2023/06/14 13:48:13;;;;;;;;;17.67;14.67;;;;;;;;5042362;28;45432;-77
2023/06/14 13:50:38;;;;;;;;;18.33;13.00;;;;;;;;5059243;28;45774;-77
2023/06/14 13:53:04;;;;;;;;;15.67;14.00;;;;;;;;5058169;28;45627;-77
2023/06/14 13:55:29;;;;;;;;;12.67;12.00;;;;;;;;5019163;28;47141;-76
2023/06/14 13:57:56;;;;;;;;;12.33;12.33;;;;;;;;5032924;28;45658;-76
2023/06/14 14:00:22;;;;;;;;;14.00;12.00;;;;;;;;5033551;28;45727;-76
2023/06/14 14:02:47;;;;;;;;;15.67;13.67;;;;;;;;5033252;28;45477;-77
2023/06/14 14:05:12;;;;;;;;;12.67;11.67;;;;;;;;5031887;28;46283;-75
2023/06/14 14:07:39;;;;;;;;;16.33;12.67;;;;;;;;5033517;28;45652;-76
2023/06/14 14:10:05;;;;;;;;;11.67;10.67;;;;;;;;5032593;28;45940;-76
2023/06/14 14:12:30;;;;;;;;;11.00;9.00;;;;;;;;5031226;28;45756;-77
2023/06/14 14:14:56;;;;;;;;;10.33;10.33;;;;;;;;5033137;28;45460;-78